Time;durP1;ratioP1;P1;durP2;ratioP2;P2;SDS_P1;SDS_P2;PMS_P1;PMS_P2;Temp;Humidity;BMP_temperature;BMP_pressure;BME280_temperature;BME280_humidity;BME280_pressure;Samples;Min_cycle;Max_cycle;Signal;HPM_P1;HPM_P2
2021/06/08 00:00:21;;;;;;;8.10;4.62;;;;;;;13.72;77.69;97776.11;1716405;83;21003;-79
2021/06/08 00:02:51;;;;;;;6.37;4.47;;;;;;;13.66;79.39;97777.70;1717348;82;20993;-79
2021/06/08 00:05:19;;;;;;;5.10;4.30;;;;;;;13.60;78.63;97774.00;1731103;82;20977;-79
2021/06/08 00:07:46;;;;;;;6.97;4.45;;;;;;;13.56;78.87;97776.40;1747671;80;21052;-79
2021/06/08 00:10:13;;;;;;;6.97;4.47;;;;;;;13.49;79.04;97773.63;1747629;80;21056;-78
2021/06/08 00:12:41;;;;;;;5.97;4.40;;;;;;;13.42;78.16;97780.98;1747973;82;20961;-78
2021/06/08 00:15:10;;;;;;;7.60;4.53;;;;;;;13.34;78.52;97784.00;1747344;81;21013;-78
2021/06/08 00:17:36;;;;;;;5.22;4.35;;;;;;;13.29;78.36;97785.52;1746533;81;21013;-79
2021/06/08 00:20:06;;;;;;;11.53;4.97;;;;;;;13.26;78.31;97779.47;1745295;82;21055;-78
2021/06/08 00:22:32;;;;;;;7.37;4.90;;;;;;;13.23;78.56;97783.58;1717388;82;21454;-79
2021/06/08 00:24:59;;;;;;;8.98;4.97;;;;;;;13.15;79.24;97778.14;1715729;83;21083;-79
2021/06/08 00:27:26;;;;;;;5.72;4.05;;;;;;;13.11;78.35;97777.88;1715617;84;20997;-79
2021/06/08 00:29:52;;;;;;;6.80;4.30;;;;;;;13.05;81.48;97781.66;1715647;84;21056;-79
2021/06/08 00:32:19;;;;;;;6.62;4.70;;;;;;;13.01;79.60;97778.75;1715534;84;21036;-78
2021/06/08 00:34:47;;;;;;;7.22;4.95;;;;;;;12.96;80.37;97776.76;1715659;82;20949;-79
2021/06/08 00:37:13;;;;;;;7.90;4.50;;;;;;;12.93;79.74;97771.56;1715461;82;21004;-79
2021/06/08 00:39:40;;;;;;;6.42;4.58;;;;;;;12.90;80.37;97775.67;1744554;82;21482;-78
2021/06/08 00:42:07;;;;;;;7.10;4.60;;;;;;;12.88;80.14;97766.42;1744730;82;21046;-78
2021/06/08 00:44:34;;;;;;;5.45;4.60;;;;;;;12.88;80.10;97770.89;1743960;82;21029;-77
2021/06/08 00:47:01;;;;;;;6.40;4.60;;;;;;;12.87;81.25;97771.83;1723272;82;21004;-78
2021/06/08 00:49:27;;;;;;;5.30;3.90;;;;;;;12.86;80.60;97766.96;1713800;83;21059;-77
2021/06/08 00:51:54;;;;;;;5.33;4.47;;;;;;;12.79;82.70;97765.51;1714926;83;21063;-77
2021/06/08 00:54:21;;;;;;;4.75;3.92;;;;;;;12.81;81.24;97767.63;1713712;82;21044;-77
2021/06/08 00:56:48;;;;;;;5.03;3.98;;;;;;;12.84;80.91;97761.31;1744764;82;21458;-77
2021/06/08 00:59:15;;;;;;;6.30;4.60;;;;;;;12.83;81.33;97755.59;1744107;82;20977;-78
2021/06/08 01:01:42;;;;;;;8.68;4.70;;;;;;;12.83;80.85;97762.25;1744527;82;21037;-78
2021/06/08 01:04:11;;;;;;;4.45;3.77;;;;;;;12.80;81.34;97756.11;1744685;82;21031;-78
2021/06/08 01:06:39;;;;;;;8.25;4.67;;;;;;;12.82;80.58;97754.72;1716306;82;20977;-78
2021/06/08 01:09:08;;;;;;;6.12;4.45;;;;;;;12.85;81.12;97755.93;1714447;83;21044;-78
2021/06/08 01:11:35;;;;;;;6.72;4.42;;;;;;;12.89;80.96;97751.34;1714395;84;21064;-78
2021/06/08 01:14:01;;;;;;;5.72;4.30;;;;;;;12.90;80.83;97747.73;1714469;83;21053;-79
2021/06/08 01:16:30;;;;;;;7.70;4.30;;;;;;;12.92;80.46;97751.22;1739935;82;21049;-79
2021/06/08 01:18:58;;;;;;;7.40;4.28;;;;;;;12.89;81.06;97750.00;1744000;82;21088;-78
2021/06/08 01:21:27;;;;;;;6.53;4.00;;;;;;;12.88;80.12;97754.94;1744137;82;21069;-79
2021/06/08 01:23:56;;;;;;;7.95;4.78;;;;;;;12.85;79.94;97749.28;1743943;82;21533;-78
2021/06/08 01:26:27;;;;;;;6.10;4.42;;;;;;;12.85;79.67;97756.38;1719623;82;21426;-79
2021/06/08 01:29:01;;;;;;;6.33;4.60;;;;;;;12.85;79.75;97759.04;1714435;84;21496;-78
2021/06/08 01:31:31;;;;;;;8.28;4.95;;;;;;;12.82;78.88;97758.71;1714655;83;21056;-78
2021/06/08 01:34:00;;;;;;;6.87;4.50;;;;;;;12.76;78.87;97766.50;1714465;84;21517;-79
2021/06/08 01:36:31;;;;;;;6.87;4.75;;;;;;;12.68;79.65;97764.62;1725171;82;21399;-79
2021/06/08 01:38:57;;;;;;;8.18;4.85;;;;;;;12.64;79.29;97760.36;1691520;84;20969;-78
2021/06/08 01:41:26;;;;;;;6.03;4.12;;;;;;;12.63;79.16;97766.13;1715307;83;21128;-78
2021/06/08 01:43:54;;;;;;;10.63;4.90;;;;;;;12.58;79.22;97765.45;1716712;83;21319;-79
2021/06/08 01:46:22;;;;;;;8.13;5.08;;;;;;;12.53;78.86;97770.09;1738251;82;21028;-79
2021/06/08 01:48:50;;;;;;;8.50;4.62;;;;;;;12.47;78.90;97757.07;1744053;82;21051;-79
2021/06/08 01:51:31;;;;;;;7.58;4.60;;;;;;;12.40;78.98;97765.30;1743969;82;21020;-79
2021/06/08 01:54:15;;;;;;;7.72;4.70;;;;;;;12.34;80.46;97766.86;1744038;82;21004;-79
2021/06/08 01:56:46;;;;;;;7.17;4.70;;;;;;;12.28;80.08;97764.45;1717155;82;21466;-78
2021/06/08 01:59:33;;;;;;;8.90;4.78;;;;;;;12.24;80.34;97763.72;1714621;84;21056;-78
2021/06/08 02:02:22;;;;;;;8.35;5.45;;;;;;;12.24;79.86;97768.16;1713723;84;21069;-77
2021/06/08 02:05:06;;;;;;;6.47;4.33;;;;;;;12.19;79.85;97766.15;1718961;82;21158;-78
2021/06/08 02:07:51;;;;;;;7.72;5.03;;;;;;;12.14;81.63;97764.53;1686209;85;21353;-78
2021/06/08 02:10:38;;;;;;;8.03;5.37;;;;;;;12.12;80.94;97769.51;1686474;85;21033;-78
2021/06/08 02:13:30;;;;;;;5.90;4.72;;;;;;;12.09;82.46;97765.18;1692528;82;21025;-78
2021/06/08 02:16:08;;;;;;;8.50;5.20;;;;;;;12.06;82.32;97770.64;1717531;82;21013;-78
2021/06/08 02:18:36;;;;;;;8.55;5.10;;;;;;;12.05;82.30;97772.02;1713126;83;21029;-78
2021/06/08 02:21:05;;;;;;;7.17;4.83;;;;;;;12.01;84.02;97768.59;1713308;83;21040;-78
2021/06/08 02:23:34;;;;;;;5.95;4.33;;;;;;;11.98;83.38;97770.03;1721701;82;20941;-78
2021/06/08 02:26:02;;;;;;;5.15;4.65;;;;;;;11.96;81.51;97767.42;1735207;82;21032;-78
2021/06/08 02:28:34;;;;;;;6.67;4.25;;;;;;;11.91;83.27;97769.40;1714087;83;21008;-78
2021/06/08 02:31:03;;;;;;;7.40;4.80;;;;;;;11.88;83.03;97774.84;1713448;84;21005;-78
2021/06/08 02:33:31;;;;;;;6.20;4.75;;;;;;;11.90;82.87;97779.62;1721009;82;21032;-78
2021/06/08 02:35:59;;;;;;;6.15;4.28;;;;;;;11.95;82.58;97773.67;1721354;82;20993;-78
2021/06/08 02:38:27;;;;;;;6.67;4.70;;;;;;;11.98;83.76;97774.89;1744212;82;21015;-79
2021/06/08 02:40:54;;;;;;;8.38;4.60;;;;;;;11.98;83.03;97773.56;1744215;82;21064;-78
2021/06/08 02:43:23;;;;;;;6.95;4.20;;;;;;;11.95;83.36;97773.67;1738944;82;21000;-79
2021/06/08 02:45:51;;;;;;;8.00;4.10;;;;;;;11.92;83.17;97774.26;1714989;82;20957;-78
2021/06/08 02:48:21;;;;;;;5.60;4.67;;;;;;;11.93;83.35;97775.53;1714660;84;21076;-79
2021/06/08 02:50:49;;;;;;;6.03;4.28;;;;;;;11.99;82.86;97778.39;1714304;83;20968;-79
2021/06/08 02:53:17;;;;;;;5.45;4.00;;;;;;;11.99;83.08;97777.94;1717719;82;20996;-79
2021/06/08 02:55:44;;;;;;;8.83;4.80;;;;;;;12.02;82.48;97772.97;1721739;82;21029;-79
2021/06/08 02:58:13;;;;;;;5.83;4.40;;;;;;;12.03;83.07;97777.35;1691054;84;21020;-79
2021/06/08 03:00:41;;;;;;;6.28;4.30;;;;;;;12.04;82.66;97777.75;1713086;84;20993;-79
2021/06/08 03:03:12;;;;;;;8.45;4.30;;;;;;;12.06;82.47;97780.38;1715070;82;21033;-79
2021/06/08 03:05:44;;;;;;;6.28;4.00;;;;;;;12.06;82.33;97787.91;1744382;82;21000;-79
2021/06/08 03:08:19;;;;;;;4.65;4.25;;;;;;;12.07;82.89;97782.98;1743165;82;21493;-79
2021/06/08 03:10:49;;;;;;;8.50;5.33;;;;;;;12.09;82.39;97782.45;1719696;82;20996;-79
2021/06/08 03:13:19;;;;;;;5.37;4.55;;;;;;;12.14;81.52;97786.27;1719628;82;21024;-79
2021/06/08 03:15:54;;;;;;;5.20;4.35;;;;;;;12.17;81.13;97781.30;1738486;82;20957;-79
2021/06/08 03:18:28;;;;;;;8.05;4.80;;;;;;;12.15;81.90;97782.69;1715076;83;21028;-78
2021/06/08 03:21:17;;;;;;;9.28;5.10;;;;;;;12.13;81.72;97788.05;1717073;84;20992;-78
2021/06/08 03:23:56;;;;;;;7.97;4.90;;;;;;;12.12;81.26;97780.13;1724530;82;21076;-79
2021/06/08 03:26:24;;;;;;;6.17;4.30;;;;;;;12.08;81.46;97786.03;1744135;82;21040;-78
2021/06/08 03:28:54;;;;;;;6.85;5.20;;;;;;;12.05;81.96;97786.17;1744050;82;21072;-79
2021/06/08 03:31:21;;;;;;;6.83;4.87;;;;;;;12.05;81.75;97790.61;1744131;82;21450;-78
2021/06/08 03:33:51;;;;;;;7.80;4.55;;;;;;;12.02;81.04;97784.92;1734972;82;21131;-78
2021/06/08 03:36:19;;;;;;;25.70;16.67;;;;;;;11.96;82.41;97793.98;1714298;84;21426;-78
2021/06/08 03:38:46;;;;;;;6.78;5.53;;;;;;;11.95;81.77;97794.91;1690363;84;20973;-78
2021/06/08 03:41:14;;;;;;;7.70;5.10;;;;;;;11.93;82.59;97796.78;1713630;83;20982;-78
2021/06/08 03:43:41;;;;;;;6.67;4.33;;;;;;;11.91;82.44;97785.81;1721882;82;21088;-78
2021/06/08 03:46:07;;;;;;;8.90;5.28;;;;;;;11.90;82.41;97800.87;1699902;82;21414;-78
2021/06/08 03:48:34;;;;;;;9.08;4.70;;;;;;;11.89;82.37;97793.83;1714436;84;20992;-78
2021/06/08 03:51:02;;;;;;;7.85;4.80;;;;;;;11.86;82.68;97805.44;1714411;84;21012;-78
2021/06/08 03:53:29;;;;;;;6.30;4.83;;;;;;;11.86;82.39;97798.80;1718822;82;21032;-78
2021/06/08 03:55:55;;;;;;;7.37;4.78;;;;;;;11.90;82.60;97803.52;1744052;82;20981;-78
2021/06/08 03:58:23;;;;;;;11.22;5.40;;;;;;;11.92;82.28;97806.13;1743887;82;20977;-78
2021/06/08 04:00:56;;;;;;;5.78;4.50;;;;;;;11.94;83.27;97806.92;1743665;82;21068;-78
2021/06/08 04:03:24;;;;;;;8.03;4.60;;;;;;;11.95;83.18;97804.66;1741126;82;21052;-79
2021/06/08 04:05:54;;;;;;;10.08;5.50;;;;;;;11.95;82.49;97802.88;1713976;83;21005;-78
2021/06/08 04:08:22;;;;;;;7.30;4.65;;;;;;;11.95;82.61;97812.17;1713595;84;20970;-78
2021/06/08 04:10:50;;;;;;;8.05;5.25;;;;;;;11.96;83.07;97809.08;1714385;84;21016;-78
2021/06/08 04:13:17;;;;;;;6.17;4.72;;;;;;;11.95;82.23;97800.67;1715828;82;21052;-78
2021/06/08 04:15:45;;;;;;;8.03;4.90;;;;;;;11.96;82.89;97811.25;1727798;82;21068;-78
2021/06/08 04:18:12;;;;;;;7.00;4.70;;;;;;;12.00;82.38;97804.89;1713122;84;21073;-77
2021/06/08 04:20:39;;;;;;;6.62;4.37;;;;;;;12.06;82.84;97809.60;1714818;84;21008;-78
2021/06/08 04:23:07;;;;;;;6.08;4.42;;;;;;;12.12;82.46;97810.23;1714789;84;21008;-78
2021/06/08 04:25:33;;;;;;;8.13;5.22;;;;;;;12.18;83.05;97809.59;1731486;82;20985;-78
2021/06/08 04:28:00;;;;;;;7.33;4.67;;;;;;;12.27;82.81;97802.14;1713201;83;21033;-78
2021/06/08 04:30:27;;;;;;;6.25;4.75;;;;;;;12.38;82.54;97801.69;1713037;84;21008;-77
2021/06/08 04:32:53;;;;;;;9.38;4.87;;;;;;;12.49;82.55;97805.25;1713244;84;21040;-77
2021/06/08 04:35:20;;;;;;;8.35;4.60;;;;;;;12.58;81.97;97808.47;1733264;82;21017;-77
2021/06/08 04:37:48;;;;;;;7.90;4.60;;;;;;;12.67;81.39;97810.27;1713336;84;21446;-78
2021/06/08 04:40:16;;;;;;;9.68;4.92;;;;;;;12.77;81.28;97805.45;1713112;84;21005;-78
2021/06/08 04:42:47;;;;;;;7.58;4.92;;;;;;;12.88;80.88;97805.47;1713404;83;21067;-78
2021/06/08 04:45:16;;;;;;;8.40;4.95;;;;;;;12.96;80.35;97804.69;1714887;82;21048;-74
2021/06/08 04:47:43;;;;;;;6.95;5.05;;;;;;;13.04;80.22;97810.52;1714751;83;21020;-75
2021/06/08 04:50:14;;;;;;;7.05;4.45;;;;;;;13.20;80.35;97807.20;1714731;84;21466;-76
2021/06/08 04:52:42;;;;;;;7.40;4.53;;;;;;;13.33;79.58;97804.89;1714730;84;21394;-76
2021/06/08 04:55:11;;;;;;;6.95;4.90;;;;;;;13.40;78.94;97802.34;1733693;82;20981;-75
2021/06/08 04:57:39;;;;;;;6.78;4.60;;;;;;;13.51;78.79;97803.70;1713464;84;21048;-76
2021/06/08 05:00:11;;;;;;;7.47;4.65;;;;;;;13.60;78.57;97807.28;1714201;83;21013;-76
2021/06/08 05:02:55;;;;;;;5.78;4.67;;;;;;;13.69;78.20;97805.98;1713334;83;20997;-76
2021/06/08 05:05:27;;;;;;;8.68;4.80;;;;;;;13.77;77.84;97805.19;1739151;82;20981;-76
2021/06/08 05:08:05;;;;;;;7.70;5.05;;;;;;;13.85;77.81;97804.38;1744236;82;21048;-76
2021/06/08 05:10:36;;;;;;;9.93;5.00;;;;;;;13.94;77.37;97804.41;1735520;82;21055;-76
2021/06/08 05:13:08;;;;;;;10.53;5.80;;;;;;;14.00;77.10;97803.27;1744679;82;21084;-76
2021/06/08 05:15:36;;;;;;;13.95;5.40;;;;;;;14.03;76.95;97807.10;1691940;83;21481;-76
2021/06/08 05:18:07;;;;;;;10.95;5.58;;;;;;;14.04;77.17;97803.98;1681242;84;21457;-76
2021/06/08 05:20:39;;;;;;;8.98;4.87;;;;;;;14.05;77.17;97804.38;1713172;84;21049;-76
2021/06/08 05:23:08;;;;;;;11.03;5.87;;;;;;;14.07;77.28;97806.52;1712304;83;21052;-76
2021/06/08 05:25:37;;;;;;;10.13;5.62;;;;;;;14.14;76.82;97798.61;1729014;82;20997;-77
2021/06/08 05:28:05;;;;;;;7.62;5.12;;;;;;;14.22;77.62;97804.91;1714569;84;21012;-76
2021/06/08 05:30:32;;;;;;;12.37;5.33;;;;;;;14.31;77.58;97806.26;1714924;84;21004;-77
2021/06/08 05:32:59;;;;;;;10.58;4.87;;;;;;;14.42;77.47;97801.75;1694547;84;21115;-76
2021/06/08 05:35:29;;;;;;;7.65;4.92;;;;;;;14.52;77.25;97799.03;1739248;82;20984;-76
2021/06/08 05:38:05;;;;;;;6.83;4.97;;;;;;;14.62;76.78;97803.45;1744586;82;21076;-76
2021/06/08 05:40:33;;;;;;;7.53;4.67;;;;;;;14.72;76.79;97799.39;1744476;82;20969;-76
2021/06/08 05:43:00;;;;;;;6.90;4.10;;;;;;;14.86;76.33;97801.39;1744456;82;21044;-77
2021/06/08 05:45:30;;;;;;;6.28;4.47;;;;;;;15.00;75.76;97802.02;1720386;82;21028;-76
2021/06/08 05:47:57;;;;;;;6.08;4.08;;;;;;;15.14;75.60;97801.79;1714713;84;21040;-76
2021/06/08 05:50:24;;;;;;;4.95;4.12;;;;;;;15.28;75.28;97803.28;1714485;83;21016;-76
2021/06/08 05:52:54;;;;;;;9.50;5.03;;;;;;;15.39;75.23;97793.84;1714069;83;21016;-77
2021/06/08 05:55:26;;;;;;;9.25;4.72;;;;;;;15.51;75.09;97797.67;1737535;82;20953;-77
2021/06/08 05:57:54;;;;;;;7.72;4.40;;;;;;;15.61;74.92;97788.22;1744475;82;21081;-77
2021/06/08 06:00:22;;;;;;;6.20;3.98;;;;;;;15.74;74.30;97793.77;1744562;82;20957;-76
2021/06/08 06:02:51;;;;;;;7.42;5.40;;;;;;;15.88;74.46;97791.70;1744519;82;21037;-77
2021/06/08 06:05:17;;;;;;;7.10;4.12;;;;;;;15.99;74.36;97783.59;1723083;82;21012;-77
2021/06/08 06:07:44;;;;;;;8.73;3.67;;;;;;;16.10;74.00;97779.38;1714793;83;21024;-77
2021/06/08 06:10:12;;;;;;;8.20;3.80;;;;;;;16.25;73.58;97780.80;1714579;84;21056;-77
2021/06/08 06:12:41;;;;;;;13.43;4.53;;;;;;;16.39;73.19;97779.17;1714486;84;21084;-78
2021/06/08 06:15:10;;;;;;;9.85;4.12;;;;;;;16.54;72.42;97776.07;1714413;82;20953;-77
2021/06/08 06:17:40;;;;;;;5.15;3.80;;;;;;;16.70;71.29;97781.41;1695421;84;21033;-77
2021/06/08 06:20:14;;;;;;;7.28;3.58;;;;;;;16.83;71.57;97781.08;1713090;84;21025;-77
2021/06/08 06:22:42;;;;;;;6.10;4.10;;;;;;;16.95;71.56;97771.47;1713212;83;20993;-77
2021/06/08 06:25:12;;;;;;;5.72;4.00;;;;;;;17.07;71.46;97771.71;1733286;82;21060;-77
2021/06/08 06:27:41;;;;;;;8.13;3.70;;;;;;;17.19;71.30;97778.98;1744230;82;20988;-77
2021/06/08 06:30:13;;;;;;;16.42;9.53;;;;;;;17.32;70.99;97768.42;1744249;82;20996;-77
2021/06/08 06:32:40;;;;;;;10.13;4.00;;;;;;;17.46;70.70;97764.89;1730399;82;20969;-78
2021/06/08 06:35:10;;;;;;;4.67;3.72;;;;;;;17.60;70.42;97768.54;1663449;86;21109;-78
2021/06/08 06:37:40;;;;;;;4.87;3.17;;;;;;;17.72;70.13;97766.41;1664295;86;20968;-79
2021/06/08 06:40:12;;;;;;;5.12;3.47;;;;;;;17.85;69.73;97761.14;1661736;86;20984;-78
2021/06/08 06:42:48;;;;;;;5.62;3.50;;;;;;;18.02;67.77;97764.09;1657949;85;21490;-79
2021/06/08 06:45:19;;;;;;;7.30;3.20;;;;;;;18.18;67.99;97762.66;1666727;85;20965;-79
2021/06/08 06:47:48;;;;;;;5.10;3.10;;;;;;;18.34;66.46;97758.51;1664483;85;20938;-79
2021/06/08 06:50:16;;;;;;;4.83;3.25;;;;;;;18.43;66.89;97754.35;1658396;86;21005;-79
2021/06/08 06:52:45;;;;;;;4.85;3.20;;;;;;;18.57;65.42;97755.27;1658371;86;21001;-79
2021/06/08 06:55:12;;;;;;;8.50;3.58;;;;;;;18.72;64.96;97752.90;1651703;85;20959;-79
2021/06/08 06:57:43;;;;;;;6.12;3.58;;;;;;;18.84;64.78;97755.24;1686275;85;21013;-79
2021/06/08 07:00:11;;;;;;;5.80;3.47;;;;;;;18.94;63.75;97755.47;1685952;85;20990;-78
2021/06/08 07:02:40;;;;;;;4.70;3.10;;;;;;;19.04;63.14;97756.19;1669417;85;21442;-78
2021/06/08 07:05:10;;;;;;;6.28;3.40;;;;;;;19.14;62.41;97758.64;1665974;85;20954;-80
2021/06/08 07:07:38;;;;;;;4.58;2.87;;;;;;;19.25;60.85;97753.41;1661870;85;21486;-79
2021/06/08 07:10:09;;;;;;;5.40;3.25;;;;;;;19.38;59.64;97754.76;1658953;86;21363;-79
2021/06/08 07:12:40;;;;;;;4.83;3.50;;;;;;;19.51;60.09;97753.88;1659424;85;20978;-80
2021/06/08 07:15:09;;;;;;;15.68;13.45;;;;;;;19.58;61.28;97751.63;1661448;85;21076;-79
2021/06/08 07:17:38;;;;;;;35.25;24.47;;;;;;;19.67;61.17;97746.95;1663400;85;21482;-79
2021/06/08 07:20:07;;;;;;;8.28;3.90;;;;;;;19.74;61.17;97746.91;1681843;85;21509;-79
2021/06/08 07:22:35;;;;;;;4.33;2.87;;;;;;;19.83;58.77;97741.34;1681894;85;21474;-78
2021/06/08 07:25:04;;;;;;;4.05;2.95;;;;;;;19.94;57.99;97745.95;1671941;85;20986;-78
2021/06/08 07:27:31;;;;;;;3.17;2.72;;;;;;;20.03;57.91;97737.73;1638281;88;21026;-78
2021/06/08 07:29:58;;;;;;;3.58;3.27;;;;;;;20.13;58.14;97739.24;1661932;85;20997;-79
2021/06/08 07:32:39;;;;;;;3.77;3.00;;;;;;;20.24;55.71;97747.88;1662515;86;21005;-79
2021/06/08 07:35:23;;;;;;;4.08;3.37;;;;;;;20.28;55.72;97744.00;1664481;85;20993;-79
2021/06/08 07:37:53;;;;;;;6.30;2.80;;;;;;;20.32;56.25;97744.15;1659245;85;21022;-79
2021/06/08 07:40:30;;;;;;;3.90;2.85;;;;;;;20.36;53.52;97740.73;1658706;85;20945;-79
2021/06/08 07:43:03;;;;;;;4.62;2.72;;;;;;;20.40;53.13;97741.77;1658652;85;21416;-78
2021/06/08 07:45:38;;;;;;;7.03;3.15;;;;;;;20.43;50.31;97741.52;1658638;85;20966;-80
2021/06/08 07:48:09;;;;;;;5.67;3.12;;;;;;;20.47;51.10;97735.91;1661335;85;20993;-79
2021/06/08 07:50:40;;;;;;;3.15;2.80;;;;;;;20.55;50.12;97733.01;1659451;85;21388;-80
2021/06/08 07:53:07;;;;;;;3.62;2.85;;;;;;;20.63;50.99;97737.81;1657559;86;21026;-79
2021/06/08 07:55:39;;;;;;;4.72;2.72;;;;;;;20.71;51.30;97728.68;1658547;85;21437;-78
2021/06/08 07:58:06;;;;;;;3.92;2.85;;;;;;;20.77;48.60;97735.92;1632079;87;21440;-78
2021/06/08 08:00:33;;;;;;;5.20;2.60;;;;;;;20.86;50.60;97737.05;1634315;87;20993;-78
2021/06/08 08:03:25;;;;;;;6.17;3.20;;;;;;;20.96;50.24;97734.92;1657408;86;21013;-78
2021/06/08 08:05:29;;;;;;;5.28;2.75;;;;;;;21.04;45.29;97728.94;1659160;86;21557;-78
2021/06/08 08:07:57;;;;;;;4.08;2.77;;;;;;;21.12;48.65;97723.46;1671806;85;21066;-78
2021/06/08 08:10:23;;;;;;;6.28;3.00;;;;;;;21.17;46.77;97717.22;1652936;86;21101;-78
2021/06/08 08:12:51;;;;;;;3.70;3.05;;;;;;;21.21;48.57;97716.86;1653058;86;21583;-78
2021/06/08 08:15:18;;;;;;;6.85;3.80;;;;;;;21.26;48.02;97723.22;1642339;87;21073;-78
2021/06/08 08:17:48;;;;;;;5.85;4.40;;;;;;;21.36;48.96;97720.67;1626442;87;21065;-78
2021/06/08 08:20:17;;;;;;;4.60;3.30;;;;;;;21.48;48.49;97723.77;1628141;87;21069;-78
2021/06/08 08:22:44;;;;;;;3.90;3.50;;;;;;;21.61;47.72;97721.42;1632115;87;21109;-78
2021/06/08 08:25:11;;;;;;;5.37;3.27;;;;;;;21.73;47.13;97720.97;1626331;88;21026;-79
2021/06/08 08:27:37;;;;;;;3.60;3.30;;;;;;;21.77;45.80;97718.40;1625154;88;21053;-78
2021/06/08 08:30:07;;;;;;;4.85;3.47;;;;;;;21.85;46.11;97716.43;1625204;88;21109;-78
2021/06/08 08:32:34;;;;;;;4.05;3.65;;;;;;;21.96;45.82;97715.06;1624965;88;21013;-79
2021/06/08 08:35:01;;;;;;;3.75;3.10;;;;;;;22.04;46.06;97713.59;1625710;87;21427;-79
2021/06/08 08:37:27;;;;;;;5.83;3.95;;;;;;;22.12;46.32;97707.92;1638620;87;20981;-79
2021/06/08 08:39:53;;;;;;;5.95;3.75;;;;;;;22.19;46.01;97714.16;1641247;87;21131;-79
2021/06/08 08:42:21;;;;;;;7.67;5.08;;;;;;;22.23;45.51;97715.16;1626146;88;21066;-78
2021/06/08 08:44:48;;;;;;;4.30;3.77;;;;;;;22.26;45.66;97714.87;1625817;88;21047;-78
2021/06/08 08:47:16;;;;;;;6.05;3.52;;;;;;;22.37;46.67;97711.78;1626136;87;21466;-77
2021/06/08 08:49:43;;;;;;;4.95;3.45;;;;;;;22.45;46.60;97723.32;1625090;87;21025;-77
2021/06/08 08:52:11;;;;;;;5.47;3.80;;;;;;;22.49;46.43;97715.30;1625229;88;21072;-76
2021/06/08 08:54:38;;;;;;;4.62;3.75;;;;;;;22.60;47.38;97718.02;1626514;87;21021;-78
2021/06/08 08:57:06;;;;;;;8.00;3.50;;;;;;;22.65;46.81;97709.03;1634521;87;21041;-78
2021/06/08 08:59:33;;;;;;;5.65;3.40;;;;;;;22.78;46.51;97716.95;1625330;88;21026;-78
2021/06/08 09:02:01;;;;;;;5.55;3.17;;;;;;;22.85;44.81;97717.30;1625555;88;20997;-78
2021/06/08 09:04:28;;;;;;;7.55;3.62;;;;;;;22.91;44.52;97718.11;1626520;87;21466;-78
2021/06/08 09:06:55;;;;;;;5.03;4.03;;;;;;;22.87;41.79;97712.61;1625948;88;21018;-80
2021/06/08 09:09:22;;;;;;;5.55;3.50;;;;;;;22.79;43.25;97717.31;1615661;86;21084;-77
2021/06/08 09:11:48;;;;;;;8.38;4.28;;;;;;;22.70;42.86;97713.19;1642775;86;21577;-80
2021/06/08 09:14:16;;;;;;;6.20;4.03;;;;;;;22.68;43.68;97705.22;1642887;86;21037;-77
2021/06/08 09:16:43;;;;;;;11.97;4.28;;;;;;;22.79;43.95;97714.61;1643553;87;21091;-79
2021/06/08 09:19:12;;;;;;;5.58;4.10;;;;;;;22.81;43.89;97706.37;1643614;87;21127;-80
2021/06/08 09:21:45;;;;;;;5.17;4.22;;;;;;;22.88;41.60;97709.42;1643896;87;21025;-78
2021/06/08 09:24:20;;;;;;;4.25;3.90;;;;;;;22.98;41.84;97704.07;1643856;87;21095;-76
2021/06/08 09:26:54;;;;;;;5.47;3.50;;;;;;;23.02;39.65;97697.42;1644240;87;21433;-75
2021/06/08 09:29:36;;;;;;;4.97;4.47;;;;;;;23.13;39.83;97701.39;1634627;86;21016;-72
2021/06/08 09:32:24;;;;;;;4.92;3.62;;;;;;;23.25;41.41;97701.34;1641787;87;21053;-76
2021/06/08 09:34:58;;;;;;;7.00;3.90;;;;;;;23.28;38.99;97703.28;1648181;86;21020;-77
2021/06/08 09:37:42;;;;;;;6.50;4.45;;;;;;;23.37;40.07;97704.34;1654571;86;20996;-74
2021/06/08 09:40:21;;;;;;;5.70;3.90;;;;;;;23.39;40.77;97701.03;1660506;86;21011;-76
2021/06/08 09:43:07;;;;;;;5.58;4.33;;;;;;;23.33;40.11;97697.00;1650858;86;21013;-80
2021/06/08 09:45:47;;;;;;;6.28;4.03;;;;;;;23.41;40.86;97690.09;1648117;86;21055;-73
2021/06/08 09:48:15;;;;;;;7.42;4.08;;;;;;;23.49;42.04;97697.01;1660446;86;21008;-78
2021/06/08 09:50:51;;;;;;;5.97;4.60;;;;;;;23.34;40.10;97683.00;1656847;86;21768;-75
2021/06/08 09:53:30;;;;;;;6.72;4.55;;;;;;;23.42;42.04;97693.14;1647074;86;21048;-79
2021/06/08 09:56:07;;;;;;;5.90;4.35;;;;;;;23.49;42.07;97682.65;1639751;87;21028;-76
2021/06/08 09:58:37;;;;;;;5.47;4.12;;;;;;;23.68;42.47;97667.84;1622316;87;21445;-76
2021/06/08 10:01:27;;;;;;;4.97;4.47;;;;;;;23.94;42.42;97662.42;1685774;84;21024;-74
2021/06/08 10:03:57;;;;;;;7.78;4.53;;;;;;;24.16;41.99;97663.23;1685619;85;21469;-74
2021/06/08 10:06:28;;;;;;;6.65;4.22;;;;;;;24.28;42.54;97672.92;1687464;84;21020;-78
2021/06/08 10:09:04;;;;;;;7.55;4.90;;;;;;;24.25;40.10;97660.52;1688245;84;21154;-76
2021/06/08 10:11:34;;;;;;;5.12;4.37;;;;;;;24.36;41.92;97666.31;1654442;85;21081;-75
2021/06/08 10:14:21;;;;;;;4.92;4.42;;;;;;;24.25;38.07;97661.87;1677757;85;20995;-74
2021/06/08 10:17:00;;;;;;;6.70;4.53;;;;;;;24.11;39.11;97652.80;1647739;86;21018;-77
2021/06/08 10:19:28;;;;;;;6.42;4.42;;;;;;;24.23;40.31;97652.18;1657760;85;21013;-75
2021/06/08 10:21:55;;;;;;;7.08;3.80;;;;;;;24.26;40.41;97654.62;1657072;86;21009;-74
2021/06/08 10:24:25;;;;;;;5.85;4.20;;;;;;;24.12;39.46;97651.80;1657565;86;21029;-73
2021/06/08 10:26:58;;;;;;;5.60;3.80;;;;;;;24.03;39.13;97648.58;1657971;86;21016;-74
2021/06/08 10:29:30;;;;;;;5.90;4.00;;;;;;;24.06;40.17;97648.28;1657941;86;21061;-73
2021/06/08 10:31:58;;;;;;;4.85;4.20;;;;;;;24.17;40.28;97646.85;1657964;86;20966;-73
2021/06/08 10:34:27;;;;;;;9.93;5.10;;;;;;;24.02;39.30;97642.30;1658363;86;21036;-79
2021/06/08 10:36:53;;;;;;;6.35;4.80;;;;;;;23.87;39.91;97648.59;1677614;85;21014;-76
2021/06/08 10:39:25;;;;;;;9.18;4.20;;;;;;;24.07;40.49;97642.73;1664870;85;20966;-76
2021/06/08 10:41:49;;;;;;;8.40;4.62;;;;;;;24.31;40.26;97641.51;1658291;86;20989;-76
2021/06/08 10:44:25;;;;;;;5.35;4.00;;;;;;;24.91;37.99;97643.73;1658155;86;20982;-76
2021/06/08 10:47:03;;;;;;;5.15;4.05;;;;;;;25.73;36.42;97637.74;1658316;86;21025;-75
2021/06/08 10:49:40;;;;;;;6.42;4.25;;;;;;;26.83;32.71;97644.13;1657958;86;21025;-74
2021/06/08 10:52:11;;;;;;;4.85;3.92;;;;;;;27.67;33.32;97625.97;1659808;85;21021;-72
2021/06/08 10:54:48;;;;;;;4.17;3.77;;;;;;;28.30;30.29;97623.80;1657852;85;20994;-72
2021/06/08 10:57:17;;;;;;;6.87;3.52;;;;;;;28.83;30.36;97622.61;1657833;86;20992;-72
2021/06/08 10:59:50;;;;;;;4.05;3.67;;;;;;;28.90;30.76;97614.63;1657517;86;21056;-72
2021/06/08 11:02:45;;;;;;;5.90;3.98;;;;;;;28.57;31.29;97612.75;1636415;85;21022;-72
2021/06/08 11:05:17;;;;;;;4.22;3.83;;;;;;;29.06;32.22;97612.40;1637655;87;21053;-72
2021/06/08 11:07:50;;;;;;;4.47;3.52;;;;;;;30.05;31.32;97605.71;1658372;86;21025;-72
2021/06/08 11:10:43;;;;;;;4.70;4.00;;;;;;;30.53;29.14;97610.20;1645434;86;21064;-73
2021/06/08 11:13:20;;;;;;;4.15;3.75;;;;;;;30.83;27.82;97611.69;1644700;86;21094;-75
2021/06/08 11:15:50;;;;;;;7.03;3.50;;;;;;;31.20;26.31;97607.23;1648542;86;21504;-74
2021/06/08 11:18:37;;;;;;;4.92;3.55;;;;;;;31.66;27.62;97597.64;1642829;86;21153;-74
2021/06/08 11:21:09;;;;;;;4.10;3.60;;;;;;;32.18;25.65;97604.00;1640907;87;20992;-74
2021/06/08 11:23:44;;;;;;;3.65;3.30;;;;;;;32.42;24.45;97596.41;1637935;87;21028;-74
2021/06/08 11:26:15;;;;;;;5.42;3.45;;;;;;;32.45;23.48;97600.69;1638103;87;21453;-74
2021/06/08 11:28:52;;;;;;;5.00;3.62;;;;;;;33.02;24.68;97597.53;1646730;86;21035;-74
2021/06/08 11:31:23;;;;;;;4.58;3.58;;;;;;;33.51;24.79;97587.14;1652375;86;21473;-74
2021/06/08 11:34:06;;;;;;;4.62;3.42;;;;;;;33.90;24.28;97584.79;1643455;86;21108;-74
2021/06/08 11:36:36;;;;;;;5.05;3.60;;;;;;;34.29;23.84;97594.78;1645948;86;21052;-75
2021/06/08 11:39:24;;;;;;;5.58;3.52;;;;;;;34.21;22.20;97591.16;1644041;86;21700;-74
2021/06/08 11:41:59;;;;;;;8.05;7.25;;;;;;;34.77;22.64;97588.28;1644616;86;21063;-74
2021/06/08 11:44:26;;;;;;;4.08;3.65;;;;;;;35.24;22.80;97585.50;1644972;86;21079;-74
2021/06/08 11:46:59;;;;;;;4.70;3.60;;;;;;;35.51;21.29;97585.45;1643898;87;21406;-75